Terminal Aerodrome Forecast
Issued by NWS

Current Version | Previous Version | Graphics & Text | Print | Product List | Glossary On
Versions: 1 2 3 4 5 6 7 8 9 10 11 12 13 14 15 16 17 18 19 20 21 22 23 24 25 26 27 28 29 30 31 32 33 34 35 36 37 38 39 40 41 42 43 44 45 46
000
FTUS41 KRNK 041724
TAFLWB
TAF
KLWB 041724Z 0418/0518 28007KT P6SM VCSH BKN040
     FM042300 27005KT P6SM BKN045
     FM050200 30004KT 4SM -SHRA BR OVC015
     FM050800 29007KT 2SM -SHRA BR OVC020=

USA.gov is the U.S. government's official web portal to all federal, state and local government web resources and services.